sensor_id;sensor_type;location;lat;lon;timestamp;P1;durP1;ratioP1;P2;durP2;ratioP2
50988;SDS011;37008;52.210;21.112;2023-07-29T00:01:36;16.73;;;10.48;;
50988;SDS011;37008;52.210;21.112;2023-07-29T00:04:02;17.65;;;11.65;;
50988;SDS011;37008;52.210;21.112;2023-07-29T00:06:28;15.05;;;11.15;;
50988;SDS011;37008;52.210;21.112;2023-07-29T00:08:53;15.85;;;10.45;;
50988;SDS011;37008;52.210;21.112;2023-07-29T00:11:19;15.77;;;10.88;;
50988;SDS011;37008;52.210;21.112;2023-07-29T00:13:44;18.13;;;11.02;;
50988;SDS011;37008;52.210;21.112;2023-07-29T00:16:12;14.20;;;10.60;;
50988;SDS011;37008;52.210;21.112;2023-07-29T00:18:37;16.75;;;10.77;;
50988;SDS011;37008;52.210;21.112;2023-07-29T00:21:03;14.60;;;12.07;;
50988;SDS011;37008;52.210;21.112;2023-07-29T00:23:29;22.98;;;12.77;;
50988;SDS011;37008;52.210;21.112;2023-07-29T00:25:54;17.27;;;11.15;;
50988;SDS011;37008;52.210;21.112;2023-07-29T00:28:20;14.50;;;11.77;;
50988;SDS011;37008;52.210;21.112;2023-07-29T00:30:45;18.35;;;11.82;;
50988;SDS011;37008;52.210;21.112;2023-07-29T00:33:11;20.08;;;12.38;;
50988;SDS011;37008;52.210;21.112;2023-07-29T00:35:37;17.48;;;12.60;;
50988;SDS011;37008;52.210;21.112;2023-07-29T00:38:02;15.80;;;12.68;;
50988;SDS011;37008;52.210;21.112;2023-07-29T00:40:28;20.13;;;12.93;;
50988;SDS011;37008;52.210;21.112;2023-07-29T00:42:54;19.55;;;12.45;;
50988;SDS011;37008;52.210;21.112;2023-07-29T00:45:26;19.13;;;12.85;;
50988;SDS011;37008;52.210;21.112;2023-07-29T00:47:53;19.23;;;12.82;;
50988;SDS011;37008;52.210;21.112;2023-07-29T00:50:19;24.95;;;13.38;;
50988;SDS011;37008;52.210;21.112;2023-07-29T00:52:45;26.05;;;13.77;;
50988;SDS011;37008;52.210;21.112;2023-07-29T00:55:11;19.95;;;13.88;;
50988;SDS011;37008;52.210;21.112;2023-07-29T00:57:37;22.58;;;14.50;;
50988;SDS011;37008;52.210;21.112;2023-07-29T01:00:03;21.75;;;14.65;;
50988;SDS011;37008;52.210;21.112;2023-07-29T01:02:33;17.80;;;14.68;;
50988;SDS011;37008;52.210;21.112;2023-07-29T01:05:00;17.95;;;14.13;;
50988;SDS011;37008;52.210;21.112;2023-07-29T01:07:47;22.40;;;15.55;;
50988;SDS011;37008;52.210;21.112;2023-07-29T01:13:06;22.63;;;14.38;;
50988;SDS011;37008;52.210;21.112;2023-07-29T01:18:29;22.20;;;17.05;;
50988;SDS011;37008;52.210;21.112;2023-07-29T01:20:59;25.55;;;19.88;;
50988;SDS011;37008;52.210;21.112;2023-07-29T01:23:31;31.98;;;18.42;;
50988;SDS011;37008;52.210;21.112;2023-07-29T01:25:58;28.88;;;18.13;;
50988;SDS011;37008;52.210;21.112;2023-07-29T01:28:25;23.20;;;18.08;;
50988;SDS011;37008;52.210;21.112;2023-07-29T01:30:52;28.67;;;21.00;;
50988;SDS011;37008;52.210;21.112;2023-07-29T01:33:48;31.63;;;22.48;;
50988;SDS011;37008;52.210;21.112;2023-07-29T01:36:23;32.20;;;18.85;;
50988;SDS011;37008;52.210;21.112;2023-07-29T01:38:52;31.73;;;20.42;;
50988;SDS011;37008;52.210;21.112;2023-07-29T01:41:19;38.90;;;25.17;;
50988;SDS011;37008;52.210;21.112;2023-07-29T01:43:46;36.33;;;25.27;;
50988;SDS011;37008;52.210;21.112;2023-07-29T01:46:12;40.60;;;27.95;;
50988;SDS011;37008;52.210;21.112;2023-07-29T01:48:39;38.15;;;26.17;;
50988;SDS011;37008;52.210;21.112;2023-07-29T01:51:05;41.97;;;24.48;;
50988;SDS011;37008;52.210;21.112;2023-07-29T01:53:32;44.83;;;24.48;;
50988;SDS011;37008;52.210;21.112;2023-07-29T01:55:58;42.80;;;26.42;;
50988;SDS011;37008;52.210;21.112;2023-07-29T01:58:23;38.25;;;24.20;;
50988;SDS011;37008;52.210;21.112;2023-07-29T02:00:50;41.53;;;28.65;;
50988;SDS011;37008;52.210;21.112;2023-07-29T02:03:15;51.53;;;29.65;;
50988;SDS011;37008;52.210;21.112;2023-07-29T02:05:41;48.28;;;29.98;;
50988;SDS011;37008;52.210;21.112;2023-07-29T02:08:08;47.70;;;30.60;;
50988;SDS011;37008;52.210;21.112;2023-07-29T02:10:34;48.90;;;31.13;;
50988;SDS011;37008;52.210;21.112;2023-07-29T02:13:00;75.45;;;34.78;;
50988;SDS011;37008;52.210;21.112;2023-07-29T02:15:25;59.90;;;28.83;;
50988;SDS011;37008;52.210;21.112;2023-07-29T02:17:55;53.50;;;27.92;;
50988;SDS011;37008;52.210;21.112;2023-07-29T02:20:21;48.25;;;28.60;;
50988;SDS011;37008;52.210;21.112;2023-07-29T02:22:46;47.30;;;28.63;;
50988;SDS011;37008;52.210;21.112;2023-07-29T02:25:13;48.10;;;29.40;;
50988;SDS011;37008;52.210;21.112;2023-07-29T02:27:39;63.00;;;31.50;;
50988;SDS011;37008;52.210;21.112;2023-07-29T02:30:07;49.30;;;27.83;;
50988;SDS011;37008;52.210;21.112;2023-07-29T02:32:34;78.03;;;33.72;;
50988;SDS011;37008;52.210;21.112;2023-07-29T02:37:29;48.40;;;28.92;;
50988;SDS011;37008;52.210;21.112;2023-07-29T02:39:55;52.78;;;28.75;;
50988;SDS011;37008;52.210;21.112;2023-07-29T02:42:21;43.85;;;25.42;;
50988;SDS011;37008;52.210;21.112;2023-07-29T02:44:46;60.72;;;28.35;;
50988;SDS011;37008;52.210;21.112;2023-07-29T02:47:12;51.78;;;26.88;;
50988;SDS011;37008;52.210;21.112;2023-07-29T02:49:37;53.47;;;28.17;;
50988;SDS011;37008;52.210;21.112;2023-07-29T02:52:03;33.80;;;22.90;;
50988;SDS011;37008;52.210;21.112;2023-07-29T02:54:29;45.75;;;25.20;;
50988;SDS011;37008;52.210;21.112;2023-07-29T02:56:54;50.60;;;25.65;;
50988;SDS011;37008;52.210;21.112;2023-07-29T02:59:20;46.72;;;24.20;;
50988;SDS011;37008;52.210;21.112;2023-07-29T03:01:46;31.70;;;21.50;;
50988;SDS011;37008;52.210;21.112;2023-07-29T03:04:11;41.53;;;26.17;;
50988;SDS011;37008;52.210;21.112;2023-07-29T03:06:38;38.28;;;23.77;;
50988;SDS011;37008;52.210;21.112;2023-07-29T03:09:04;35.58;;;22.85;;
50988;SDS011;37008;52.210;21.112;2023-07-29T03:11:30;41.22;;;24.15;;
50988;SDS011;37008;52.210;21.112;2023-07-29T03:13:56;28.02;;;19.95;;
50988;SDS011;37008;52.210;21.112;2023-07-29T03:16:22;28.42;;;20.58;;
50988;SDS011;37008;52.210;21.112;2023-07-29T03:18:48;53.58;;;28.85;;
50988;SDS011;37008;52.210;21.112;2023-07-29T03:21:14;42.63;;;23.60;;
50988;SDS011;37008;52.210;21.112;2023-07-29T03:23:40;41.97;;;22.70;;
50988;SDS011;37008;52.210;21.112;2023-07-29T03:26:05;34.35;;;20.35;;
50988;SDS011;37008;52.210;21.112;2023-07-29T03:28:35;37.05;;;21.63;;
50988;SDS011;37008;52.210;21.112;2023-07-29T03:31:05;37.50;;;22.23;;
50988;SDS011;37008;52.210;21.112;2023-07-29T03:33:31;42.05;;;23.95;;
50988;SDS011;37008;52.210;21.112;2023-07-29T03:35:57;30.13;;;21.30;;
50988;SDS011;37008;52.210;21.112;2023-07-29T03:38:22;39.35;;;23.25;;
50988;SDS011;37008;52.210;21.112;2023-07-29T03:40:48;35.50;;;24.13;;
50988;SDS011;37008;52.210;21.112;2023-07-29T03:43:15;42.05;;;24.90;;
50988;SDS011;37008;52.210;21.112;2023-07-29T03:45:41;44.63;;;26.80;;
50988;SDS011;37008;52.210;21.112;2023-07-29T03:48:06;34.40;;;20.38;;
50988;SDS011;37008;52.210;21.112;2023-07-29T03:50:35;33.80;;;21.85;;
50988;SDS011;37008;52.210;21.112;2023-07-29T03:53:01;15.98;;;12.98;;
50988;SDS011;37008;52.210;21.112;2023-07-29T03:55:28;19.50;;;17.02;;
50988;SDS011;37008;52.210;21.112;2023-07-29T03:57:55;12.52;;;9.55;;
50988;SDS011;37008;52.210;21.112;2023-07-29T04:00:24;9.98;;;8.88;;
50988;SDS011;37008;52.210;21.112;2023-07-29T04:02:49;9.95;;;8.85;;
50988;SDS011;37008;52.210;21.112;2023-07-29T04:05:15;10.30;;;9.30;;
50988;SDS011;37008;52.210;21.112;2023-07-29T04:07:41;13.27;;;11.73;;
50988;SDS011;37008;52.210;21.112;2023-07-29T04:10:07;19.60;;;16.05;;
50988;SDS011;37008;52.210;21.112;2023-07-29T04:12:33;14.73;;;12.00;;
50988;SDS011;37008;52.210;21.112;2023-07-29T04:14:58;19.42;;;14.32;;
50988;SDS011;37008;52.210;21.112;2023-07-29T04:17:24;29.40;;;17.13;;
50988;SDS011;37008;52.210;21.112;2023-07-29T04:19:49;26.15;;;16.33;;
50988;SDS011;37008;52.210;21.112;2023-07-29T04:22:15;18.52;;;15.32;;
50988;SDS011;37008;52.210;21.112;2023-07-29T04:24:41;25.52;;;17.15;;
50988;SDS011;37008;52.210;21.112;2023-07-29T04:27:07;23.85;;;15.93;;
50988;SDS011;37008;52.210;21.112;2023-07-29T04:29:33;29.67;;;21.88;;
50988;SDS011;37008;52.210;21.112;2023-07-29T04:32:00;30.77;;;21.67;;
50988;SDS011;37008;52.210;21.112;2023-07-29T04:34:26;27.65;;;20.45;;
50988;SDS011;37008;52.210;21.112;2023-07-29T04:36:52;33.20;;;21.05;;
50988;SDS011;37008;52.210;21.112;2023-07-29T04:39:17;30.65;;;20.13;;
50988;SDS011;37008;52.210;21.112;2023-07-29T04:41:43;27.60;;;18.90;;
50988;SDS011;37008;52.210;21.112;2023-07-29T04:44:09;23.92;;;19.45;;
50988;SDS011;37008;52.210;21.112;2023-07-29T04:46:35;24.45;;;18.77;;
50988;SDS011;37008;52.210;21.112;2023-07-29T04:49:01;23.23;;;18.67;;
50988;SDS011;37008;52.210;21.112;2023-07-29T04:51:27;22.83;;;18.88;;
50988;SDS011;37008;52.210;21.112;2023-07-29T04:53:53;21.60;;;16.33;;
50988;SDS011;37008;52.210;21.112;2023-07-29T04:56:19;21.02;;;17.45;;
50988;SDS011;37008;52.210;21.112;2023-07-29T04:58:44;15.43;;;13.32;;
50988;SDS011;37008;52.210;21.112;2023-07-29T05:01:10;16.27;;;13.40;;
50988;SDS011;37008;52.210;21.112;2023-07-29T05:03:35;21.58;;;16.35;;
50988;SDS011;37008;52.210;21.112;2023-07-29T05:06:02;21.02;;;16.95;;
50988;SDS011;37008;52.210;21.112;2023-07-29T05:08:28;24.70;;;17.77;;
50988;SDS011;37008;52.210;21.112;2023-07-29T05:10:54;18.73;;;16.75;;
50988;SDS011;37008;52.210;21.112;2023-07-29T05:13:20;18.45;;;16.60;;
50988;SDS011;37008;52.210;21.112;2023-07-29T05:15:47;19.75;;;16.40;;
50988;SDS011;37008;52.210;21.112;2023-07-29T05:18:13;18.15;;;16.23;;
50988;SDS011;37008;52.210;21.112;2023-07-29T05:20:39;20.67;;;17.38;;
50988;SDS011;37008;52.210;21.112;2023-07-29T05:23:05;21.00;;;17.50;;
50988;SDS011;37008;52.210;21.112;2023-07-29T05:25:31;18.20;;;16.27;;
50988;SDS011;37008;52.210;21.112;2023-07-29T05:27:57;17.83;;;16.02;;
50988;SDS011;37008;52.210;21.112;2023-07-29T05:30:22;19.08;;;17.17;;
50988;SDS011;37008;52.210;21.112;2023-07-29T05:32:48;17.58;;;14.93;;
50988;SDS011;37008;52.210;21.112;2023-07-29T05:35:14;17.77;;;15.93;;
50988;SDS011;37008;52.210;21.112;2023-07-29T05:37:40;18.23;;;15.98;;
50988;SDS011;37008;52.210;21.112;2023-07-29T05:40:06;16.70;;;15.02;;
50988;SDS011;37008;52.210;21.112;2023-07-29T05:42:33;18.73;;;16.30;;
50988;SDS011;37008;52.210;21.112;2023-07-29T05:44:58;17.83;;;16.10;;
50988;SDS011;37008;52.210;21.112;2023-07-29T05:47:24;16.52;;;14.82;;
50988;SDS011;37008;52.210;21.112;2023-07-29T05:49:50;18.38;;;16.13;;
50988;SDS011;37008;52.210;21.112;2023-07-29T05:52:16;19.60;;;16.25;;
50988;SDS011;37008;52.210;21.112;2023-07-29T05:54:41;20.33;;;17.80;;
50988;SDS011;37008;52.210;21.112;2023-07-29T05:57:10;23.20;;;19.23;;
50988;SDS011;37008;52.210;21.112;2023-07-29T05:59:36;21.08;;;18.83;;
50988;SDS011;37008;52.210;21.112;2023-07-29T06:02:02;21.83;;;19.60;;
50988;SDS011;37008;52.210;21.112;2023-07-29T06:04:28;22.42;;;20.13;;
50988;SDS011;37008;52.210;21.112;2023-07-29T06:06:54;23.40;;;21.00;;
50988;SDS011;37008;52.210;21.112;2023-07-29T06:09:20;23.08;;;20.67;;
50988;SDS011;37008;52.210;21.112;2023-07-29T06:11:50;22.20;;;19.98;;
50988;SDS011;37008;52.210;21.112;2023-07-29T06:14:16;21.67;;;19.48;;
50988;SDS011;37008;52.210;21.112;2023-07-29T06:16:41;19.90;;;17.75;;
50988;SDS011;37008;52.210;21.112;2023-07-29T06:19:07;19.35;;;17.52;;
50988;SDS011;37008;52.210;21.112;2023-07-29T06:21:33;18.20;;;16.40;;
50988;SDS011;37008;52.210;21.112;2023-07-29T06:23:59;17.13;;;15.63;;
50988;SDS011;37008;52.210;21.112;2023-07-29T06:26:25;16.92;;;15.18;;
50988;SDS011;37008;52.210;21.112;2023-07-29T06:28:51;16.17;;;14.48;;
50988;SDS011;37008;52.210;21.112;2023-07-29T06:31:16;17.45;;;14.90;;
50988;SDS011;37008;52.210;21.112;2023-07-29T06:33:42;18.40;;;14.40;;
50988;SDS011;37008;52.210;21.112;2023-07-29T06:36:07;16.88;;;15.13;;
50988;SDS011;37008;52.210;21.112;2023-07-29T06:38:33;16.88;;;12.98;;
50988;SDS011;37008;52.210;21.112;2023-07-29T06:40:59;18.33;;;16.65;;
50988;SDS011;37008;52.210;21.112;2023-07-29T06:43:24;22.58;;;20.35;;
50988;SDS011;37008;52.210;21.112;2023-07-29T06:45:50;24.20;;;21.27;;
50988;SDS011;37008;52.210;21.112;2023-07-29T06:48:16;24.83;;;22.42;;
50988;SDS011;37008;52.210;21.112;2023-07-29T06:50:43;26.80;;;24.35;;
50988;SDS011;37008;52.210;21.112;2023-07-29T06:53:09;29.83;;;26.95;;
50988;SDS011;37008;52.210;21.112;2023-07-29T06:55:35;30.35;;;27.33;;
50988;SDS011;37008;52.210;21.112;2023-07-29T06:58:00;28.88;;;26.17;;
50988;SDS011;37008;52.210;21.112;2023-07-29T07:00:26;31.30;;;27.85;;
50988;SDS011;37008;52.210;21.112;2023-07-29T07:02:51;29.40;;;26.38;;
50988;SDS011;37008;52.210;21.112;2023-07-29T07:05:17;26.70;;;24.10;;
50988;SDS011;37008;52.210;21.112;2023-07-29T07:07:45;27.67;;;24.73;;
50988;SDS011;37008;52.210;21.112;2023-07-29T07:10:14;28.15;;;25.38;;
50988;SDS011;37008;52.210;21.112;2023-07-29T07:12:39;25.30;;;22.75;;
50988;SDS011;37008;52.210;21.112;2023-07-29T07:15:05;27.15;;;24.23;;
50988;SDS011;37008;52.210;21.112;2023-07-29T07:17:31;26.65;;;23.95;;
50988;SDS011;37008;52.210;21.112;2023-07-29T07:19:57;25.98;;;22.85;;
50988;SDS011;37008;52.210;21.112;2023-07-29T07:22:23;20.95;;;18.95;;
50988;SDS011;37008;52.210;21.112;2023-07-29T07:24:48;18.02;;;15.52;;
50988;SDS011;37008;52.210;21.112;2023-07-29T07:27:14;22.17;;;18.10;;
50988;SDS011;37008;52.210;21.112;2023-07-29T07:29:40;21.80;;;19.70;;
50988;SDS011;37008;52.210;21.112;2023-07-29T07:32:05;18.23;;;16.52;;
50988;SDS011;37008;52.210;21.112;2023-07-29T07:34:31;17.65;;;15.93;;
50988;SDS011;37008;52.210;21.112;2023-07-29T07:36:58;15.43;;;13.93;;
50988;SDS011;37008;52.210;21.112;2023-07-29T07:39:23;15.38;;;13.98;;
50988;SDS011;37008;52.210;21.112;2023-07-29T07:41:49;15.02;;;13.52;;
50988;SDS011;37008;52.210;21.112;2023-07-29T07:44:15;15.25;;;13.75;;
50988;SDS011;37008;52.210;21.112;2023-07-29T07:46:42;14.50;;;13.18;;
50988;SDS011;37008;52.210;21.112;2023-07-29T07:49:09;15.23;;;13.82;;
50988;SDS011;37008;52.210;21.112;2023-07-29T07:51:34;13.48;;;12.18;;
50988;SDS011;37008;52.210;21.112;2023-07-29T07:54:00;11.63;;;10.52;;
50988;SDS011;37008;52.210;21.112;2023-07-29T07:56:25;13.48;;;11.85;;
50988;SDS011;37008;52.210;21.112;2023-07-29T07:58:51;12.70;;;11.60;;
50988;SDS011;37008;52.210;21.112;2023-07-29T08:01:17;13.55;;;12.27;;
50988;SDS011;37008;52.210;21.112;2023-07-29T08:03:42;14.00;;;11.77;;
50988;SDS011;37008;52.210;21.112;2023-07-29T08:06:08;10.85;;;9.93;;
50988;SDS011;37008;52.210;21.112;2023-07-29T08:08:33;10.10;;;9.10;;
50988;SDS011;37008;52.210;21.112;2023-07-29T08:10:59;9.45;;;8.52;;
50988;SDS011;37008;52.210;21.112;2023-07-29T08:13:24;10.43;;;9.40;;
50988;SDS011;37008;52.210;21.112;2023-07-29T08:15:51;10.63;;;9.55;;
50988;SDS011;37008;52.210;21.112;2023-07-29T08:18:18;10.05;;;9.15;;
50988;SDS011;37008;52.210;21.112;2023-07-29T08:20:53;8.90;;;8.10;;
50988;SDS011;37008;52.210;21.112;2023-07-29T08:23:20;8.57;;;7.80;;
50988;SDS011;37008;52.210;21.112;2023-07-29T08:25:51;9.95;;;7.55;;
50988;SDS011;37008;52.210;21.112;2023-07-29T08:28:21;7.85;;;7.05;;
50988;SDS011;37008;52.210;21.112;2023-07-29T08:30:47;7.97;;;7.18;;
50988;SDS011;37008;52.210;21.112;2023-07-29T08:33:13;6.75;;;6.00;;
50988;SDS011;37008;52.210;21.112;2023-07-29T08:35:38;6.97;;;5.13;;
50988;SDS011;37008;52.210;21.112;2023-07-29T08:38:04;6.82;;;6.22;;
50988;SDS011;37008;52.210;21.112;2023-07-29T08:40:29;5.53;;;5.03;;
50988;SDS011;37008;52.210;21.112;2023-07-29T08:42:59;4.88;;;4.20;;
50988;SDS011;37008;52.210;21.112;2023-07-29T08:45:34;5.82;;;4.68;;
50988;SDS011;37008;52.210;21.112;2023-07-29T08:48:02;4.78;;;4.20;;
50988;SDS011;37008;52.210;21.112;2023-07-29T08:50:31;6.25;;;4.80;;
50988;SDS011;37008;52.210;21.112;2023-07-29T08:52:57;5.65;;;4.00;;
50988;SDS011;37008;52.210;21.112;2023-07-29T08:55:25;4.75;;;4.20;;
50988;SDS011;37008;52.210;21.112;2023-07-29T08:57:51;5.90;;;4.72;;
50988;SDS011;37008;52.210;21.112;2023-07-29T09:00:17;4.30;;;3.90;;
50988;SDS011;37008;52.210;21.112;2023-07-29T09:02:44;5.60;;;4.38;;
50988;SDS011;37008;52.210;21.112;2023-07-29T09:05:10;4.47;;;4.07;;
50988;SDS011;37008;52.210;21.112;2023-07-29T09:07:35;4.25;;;3.40;;
50988;SDS011;37008;52.210;21.112;2023-07-29T09:10:02;5.18;;;3.20;;
50988;SDS011;37008;52.210;21.112;2023-07-29T09:12:27;5.97;;;3.50;;
50988;SDS011;37008;52.210;21.112;2023-07-29T09:14:53;4.20;;;3.70;;
50988;SDS011;37008;52.210;21.112;2023-07-29T09:17:21;4.07;;;3.67;;
50988;SDS011;37008;52.210;21.112;2023-07-29T09:19:50;4.32;;;3.90;;
50988;SDS011;37008;52.210;21.112;2023-07-29T09:22:19;5.55;;;3.67;;
50988;SDS011;37008;52.210;21.112;2023-07-29T09:24:46;4.00;;;3.60;;
50988;SDS011;37008;52.210;21.112;2023-07-29T09:27:25;6.57;;;3.65;;
50988;SDS011;37008;52.210;21.112;2023-07-29T09:29:52;6.28;;;3.00;;
50988;SDS011;37008;52.210;21.112;2023-07-29T09:32:21;3.38;;;3.00;;
50988;SDS011;37008;52.210;21.112;2023-07-29T09:34:48;7.30;;;3.10;;
50988;SDS011;37008;52.210;21.112;2023-07-29T09:37:17;2.95;;;2.65;;
50988;SDS011;37008;52.210;21.112;2023-07-29T09:39:47;3.80;;;2.67;;
50988;SDS011;37008;52.210;21.112;2023-07-29T09:42:17;3.30;;;3.00;;
50988;SDS011;37008;52.210;21.112;2023-07-29T09:44:44;5.25;;;2.80;;
50988;SDS011;37008;52.210;21.112;2023-07-29T09:47:18;2.97;;;2.53;;
50988;SDS011;37008;52.210;21.112;2023-07-29T09:49:45;3.15;;;2.40;;
50988;SDS011;37008;52.210;21.112;2023-07-29T09:52:10;5.00;;;2.20;;
50988;SDS011;37008;52.210;21.112;2023-07-29T09:54:37;2.67;;;1.70;;
50988;SDS011;37008;52.210;21.112;2023-07-29T09:57:02;2.70;;;1.98;;
50988;SDS011;37008;52.210;21.112;2023-07-29T09:59:33;3.22;;;1.90;;
50988;SDS011;37008;52.210;21.112;2023-07-29T10:01:59;3.28;;;1.90;;
50988;SDS011;37008;52.210;21.112;2023-07-29T10:04:25;2.33;;;1.75;;
50988;SDS011;37008;52.210;21.112;2023-07-29T10:06:51;3.08;;;2.50;;
50988;SDS011;37008;52.210;21.112;2023-07-29T10:09:21;2.88;;;2.13;;
50988;SDS011;37008;52.210;21.112;2023-07-29T10:11:47;2.22;;;2.00;;
50988;SDS011;37008;52.210;21.112;2023-07-29T10:14:15;3.85;;;2.60;;
50988;SDS011;37008;52.210;21.112;2023-07-29T10:16:42;4.47;;;2.08;;
50988;SDS011;37008;52.210;21.112;2023-07-29T10:19:10;5.93;;;2.38;;
50988;SDS011;37008;52.210;21.112;2023-07-29T10:21:39;3.22;;;2.05;;
50988;SDS011;37008;52.210;21.112;2023-07-29T10:24:08;3.85;;;2.00;;
50988;SDS011;37008;52.210;21.112;2023-07-29T10:26:39;4.55;;;1.90;;
50988;SDS011;37008;52.210;21.112;2023-07-29T10:29:08;4.00;;;2.08;;
50988;SDS011;37008;52.210;21.112;2023-07-29T10:31:37;2.58;;;2.00;;
50988;SDS011;37008;52.210;21.112;2023-07-29T10:34:05;3.38;;;1.88;;
50988;SDS011;37008;52.210;21.112;2023-07-29T10:36:31;2.38;;;1.80;;
50988;SDS011;37008;52.210;21.112;2023-07-29T10:38:57;2.35;;;1.70;;
50988;SDS011;37008;52.210;21.112;2023-07-29T10:41:22;2.95;;;1.77;;
50988;SDS011;37008;52.210;21.112;2023-07-29T10:43:48;4.35;;;1.85;;
50988;SDS011;37008;52.210;21.112;2023-07-29T10:46:15;17.23;;;2.22;;
50988;SDS011;37008;52.210;21.112;2023-07-29T10:51:29;2.60;;;1.90;;
50988;SDS011;37008;52.210;21.112;2023-07-29T10:54:00;5.43;;;1.73;;
50988;SDS011;37008;52.210;21.112;2023-07-29T10:56:28;2.17;;;1.88;;
50988;SDS011;37008;52.210;21.112;2023-07-29T11:01:58;2.95;;;2.10;;
50988;SDS011;37008;52.210;21.112;2023-07-29T11:04:24;2.50;;;1.55;;
50988;SDS011;37008;52.210;21.112;2023-07-29T11:09:57;2.28;;;1.83;;
50988;SDS011;37008;52.210;21.112;2023-07-29T11:12:37;2.33;;;1.77;;
50988;SDS011;37008;52.210;21.112;2023-07-29T11:20:11;2.45;;;1.85;;
50988;SDS011;37008;52.210;21.112;2023-07-29T11:22:37;3.03;;;1.63;;
50988;SDS011;37008;52.210;21.112;2023-07-29T11:25:04;2.83;;;1.90;;
50988;SDS011;37008;52.210;21.112;2023-07-29T11:27:31;2.95;;;1.67;;
50988;SDS011;37008;52.210;21.112;2023-07-29T11:29:58;2.63;;;1.83;;
50988;SDS011;37008;52.210;21.112;2023-07-29T11:32:24;1.88;;;1.70;;
50988;SDS011;37008;52.210;21.112;2023-07-29T11:34:50;4.25;;;1.90;;
50988;SDS011;37008;52.210;21.112;2023-07-29T11:37:16;2.13;;;1.67;;
50988;SDS011;37008;52.210;21.112;2023-07-29T11:39:42;2.83;;;1.70;;
50988;SDS011;37008;52.210;21.112;2023-07-29T11:42:12;5.93;;;2.13;;
50988;SDS011;37008;52.210;21.112;2023-07-29T11:44:41;2.63;;;1.60;;
50988;SDS011;37008;52.210;21.112;2023-07-29T11:47:07;3.97;;;1.70;;
50988;SDS011;37008;52.210;21.112;2023-07-29T11:49:34;2.20;;;1.50;;
50988;SDS011;37008;52.210;21.112;2023-07-29T11:52:01;2.30;;;1.70;;
50988;SDS011;37008;52.210;21.112;2023-07-29T11:54:28;2.10;;;1.60;;
50988;SDS011;37008;52.210;21.112;2023-07-29T11:56:53;2.10;;;1.60;;
50988;SDS011;37008;52.210;21.112;2023-07-29T11:59:20;3.47;;;1.77;;
50988;SDS011;37008;52.210;21.112;2023-07-29T12:01:46;2.72;;;1.70;;
50988;SDS011;37008;52.210;21.112;2023-07-29T12:04:12;5.70;;;1.63;;
50988;SDS011;37008;52.210;21.112;2023-07-29T12:06:38;4.97;;;1.95;;
50988;SDS011;37008;52.210;21.112;2023-07-29T12:09:04;2.10;;;1.52;;
50988;SDS011;37008;52.210;21.112;2023-07-29T12:11:30;1.85;;;1.50;;
50988;SDS011;37008;52.210;21.112;2023-07-29T12:13:57;2.00;;;1.80;;
50988;SDS011;37008;52.210;21.112;2023-07-29T12:16:24;3.65;;;1.85;;
50988;SDS011;37008;52.210;21.112;2023-07-29T12:18:50;3.17;;;1.65;;
50988;SDS011;37008;52.210;21.112;2023-07-29T12:21:17;2.20;;;1.70;;
50988;SDS011;37008;52.210;21.112;2023-07-29T12:23:44;2.50;;;1.70;;
50988;SDS011;37008;52.210;21.112;2023-07-29T12:26:09;4.35;;;1.85;;
50988;SDS011;37008;52.210;21.112;2023-07-29T12:28:35;2.97;;;1.60;;
50988;SDS011;37008;52.210;21.112;2023-07-29T12:31:00;2.25;;;1.70;;
50988;SDS011;37008;52.210;21.112;2023-07-29T12:33:30;4.53;;;1.63;;
50988;SDS011;37008;52.210;21.112;2023-07-29T12:35:55;3.72;;;1.75;;
50988;SDS011;37008;52.210;21.112;2023-07-29T12:38:21;2.13;;;1.60;;
50988;SDS011;37008;52.210;21.112;2023-07-29T12:40:47;2.20;;;1.92;;
50988;SDS011;37008;52.210;21.112;2023-07-29T12:43:12;1.95;;;1.75;;
50988;SDS011;37008;52.210;21.112;2023-07-29T12:45:38;3.03;;;1.88;;
50988;SDS011;37008;52.210;21.112;2023-07-29T12:48:07;1.75;;;1.65;;
50988;SDS011;37008;52.210;21.112;2023-07-29T12:50:33;2.22;;;1.67;;
50988;SDS011;37008;52.210;21.112;2023-07-29T12:52:59;3.53;;;1.50;;
50988;SDS011;37008;52.210;21.112;2023-07-29T12:55:25;6.25;;;1.88;;
50988;SDS011;37008;52.210;21.112;2023-07-29T12:57:50;1.75;;;1.48;;
50988;SDS011;37008;52.210;21.112;2023-07-29T13:00:16;4.00;;;1.90;;
50988;SDS011;37008;52.210;21.112;2023-07-29T13:02:42;2.55;;;1.63;;
50988;SDS011;37008;52.210;21.112;2023-07-29T13:05:11;2.95;;;1.90;;
50988;SDS011;37008;52.210;21.112;2023-07-29T13:07:38;6.70;;;1.50;;
50988;SDS011;37008;52.210;21.112;2023-07-29T13:10:04;2.42;;;1.70;;
50988;SDS011;37008;52.210;21.112;2023-07-29T13:12:30;2.70;;;1.80;;
50988;SDS011;37008;52.210;21.112;2023-07-29T13:14:56;3.53;;;1.90;;
50988;SDS011;37008;52.210;21.112;2023-07-29T13:17:21;6.95;;;2.05;;
50988;SDS011;37008;52.210;21.112;2023-07-29T13:19:48;4.78;;;2.20;;
50988;SDS011;37008;52.210;21.112;2023-07-29T13:22:14;3.08;;;1.75;;
50988;SDS011;37008;52.210;21.112;2023-07-29T13:24:39;2.75;;;1.75;;
50988;SDS011;37008;52.210;21.112;2023-07-29T13:27:05;1.65;;;1.50;;
50988;SDS011;37008;52.210;21.112;2023-07-29T13:29:31;2.47;;;1.60;;
50988;SDS011;37008;52.210;21.112;2023-07-29T13:31:56;3.55;;;1.95;;
50988;SDS011;37008;52.210;21.112;2023-07-29T13:34:22;2.65;;;2.00;;
50988;SDS011;37008;52.210;21.112;2023-07-29T13:36:48;1.70;;;1.50;;
50988;SDS011;37008;52.210;21.112;2023-07-29T13:39:13;3.47;;;1.60;;
50988;SDS011;37008;52.210;21.112;2023-07-29T13:41:39;2.17;;;1.80;;
50988;SDS011;37008;52.210;21.112;2023-07-29T13:44:04;2.95;;;1.90;;
50988;SDS011;37008;52.210;21.112;2023-07-29T13:46:30;2.17;;;1.98;;
50988;SDS011;37008;52.210;21.112;2023-07-29T13:48:55;3.42;;;1.63;;
50988;SDS011;37008;52.210;21.112;2023-07-29T13:51:21;5.68;;;2.10;;
50988;SDS011;37008;52.210;21.112;2023-07-29T13:53:47;3.22;;;2.05;;
50988;SDS011;37008;52.210;21.112;2023-07-29T13:56:12;1.77;;;1.60;;
50988;SDS011;37008;52.210;21.112;2023-07-29T13:58:38;2.13;;;1.70;;
50988;SDS011;37008;52.210;21.112;2023-07-29T14:01:03;7.45;;;1.80;;
50988;SDS011;37008;52.210;21.112;2023-07-29T14:03:29;3.95;;;1.92;;
50988;SDS011;37008;52.210;21.112;2023-07-29T14:05:54;3.85;;;1.80;;
50988;SDS011;37008;52.210;21.112;2023-07-29T14:08:20;2.40;;;1.70;;
50988;SDS011;37008;52.210;21.112;2023-07-29T14:10:48;3.13;;;1.70;;
50988;SDS011;37008;52.210;21.112;2023-07-29T14:13:14;3.88;;;1.73;;
50988;SDS011;37008;52.210;21.112;2023-07-29T14:15:40;4.40;;;1.70;;
50988;SDS011;37008;52.210;21.112;2023-07-29T14:18:05;4.43;;;1.83;;
50988;SDS011;37008;52.210;21.112;2023-07-29T14:20:32;5.68;;;1.88;;
50988;SDS011;37008;52.210;21.112;2023-07-29T14:22:57;4.57;;;1.70;;
50988;SDS011;37008;52.210;21.112;2023-07-29T14:25:23;2.20;;;1.58;;
50988;SDS011;37008;52.210;21.112;2023-07-29T14:27:49;5.60;;;1.88;;
50988;SDS011;37008;52.210;21.112;2023-07-29T14:30:15;6.40;;;2.00;;
50988;SDS011;37008;52.210;21.112;2023-07-29T14:32:41;3.40;;;1.77;;
50988;SDS011;37008;52.210;21.112;2023-07-29T14:35:06;8.90;;;1.83;;
50988;SDS011;37008;52.210;21.112;2023-07-29T14:37:33;5.95;;;1.75;;
50988;SDS011;37008;52.210;21.112;2023-07-29T14:39:59;3.33;;;1.80;;